Helen Merril — WDF2994 — position and weather

sailwx.info

Track history (hours):
 
Tides and Currents Weather Stations Pressure Air Temp Water Temp Dewpoint Dewpoint Depression Visibility Wind Speed Wind Dir Waves Ship Positions

Helen Merril

Owner: SCF Waxler Marine LLC, St. Rose, LA. More information available from US FCC via Universal Licensing System and Coast Guard Vessel Documentation Center.

Last reported at 2016-May-20 02:31 UTC. Time now 2016-May-25 14:54 UTC.
Position N 28°57' W 095°20'.

Length 33 m; draft 6.1 m.

Type: Ship (hazmat cat A). MMSI: 367434260.

Date/timePositionNaut miles runAvg speedWind from/ knotsBaromVisibWave heightAir tempDewpointWater temp
2016-May-20 02:31N 28°57' W 095°20'  
2016-May-13 02:31N 28°55' W 095°21'38 2.2
2016-May-12 09:22N 29°21' W 094°49'5 5.9
2016-May-12 08:28N 29°26' W 094°50'9 9.9
2016-May-12 07:33N 29°34' W 094°55'9 9.3
2016-May-12 06:33N 29°42' W 095°01'6 6.1
2016-May-12 05:33N 29°44' W 095°07'0 0.0
2016-May-12 04:33N 29°44' W 095°07'0 0.0
2016-May-12 03:33N 29°44' W 095°07'0 0.0
2016-May-12 02:34N 29°44' W 095°07'0 0.0
2016-May-12 01:33N 29°44' W 095°07'0 0.0
2016-May-12 00:33N 29°44' W 095°07'0 0.0
2016-May-11 23:33N 29°44' W 095°07'0 0.0
2016-May-11 22:33N 29°44' W 095°07'0 0.0
2016-May-11 21:34N 29°44' W 095°07'0 0.0
2016-May-11 20:33N 29°44' W 095°07'0 0.0
2016-May-11 19:33N 29°44' W 095°07'0 0.0
2016-May-11 17:33N 29°44' W 095°07'0 0.0
2016-May-11 16:34N 29°44' W 095°07'0 0.0
2016-May-11 15:33N 29°44' W 095°07'0 0.0
2016-May-11 14:34N 29°44' W 095°07'0 0.1
2016-May-11 12:33N 29°44' W 095°07'5 4.9
2016-May-11 11:33N 29°44' W 095°02'8 7.7
2016-May-11 10:33N 29°37' W 094°57'9 8.4
2016-May-11 09:33N 29°30' W 094°52'  
Track history (hours):
 
Tides and Currents Weather Stations Pressure Air Temp Water Temp Dewpoint Dewpoint Depression Visibility Wind Speed Wind Dir Waves Ship Positions

Helen Merril

Owner: SCF Waxler Marine LLC, St. Rose, LA. More information available from US FCC via Universal Licensing System and Coast Guard Vessel Documentation Center.

Last reported at 2016-May-20 02:31 UTC. Time now 2016-May-25 14:54 UTC.
Position N 28°57' W 095°20'.

Length 33 m; draft 6.1 m.

Type: Ship (hazmat cat A). MMSI: 367434260.

Date/timePositionNaut miles runAvg speedWind from/ knotsBaromVisibWave heightAir tempDewpointWater temp
2016-May-20 02:31N 28°57' W 095°20'  
2016-May-13 02:31N 28°55' W 095°21'38 2.2
2016-May-12 09:22N 29°21' W 094°49'5 5.9
2016-May-12 08:28N 29°26' W 094°50'9 9.9
2016-May-12 07:33N 29°34' W 094°55'9 9.3
2016-May-12 06:33N 29°42' W 095°01'6 6.1
2016-May-12 05:33N 29°44' W 095°07'0 0.0
2016-May-12 04:33N 29°44' W 095°07'0 0.0
2016-May-12 03:33N 29°44' W 095°07'0 0.0
2016-May-12 02:34N 29°44' W 095°07'0 0.0
2016-May-12 01:33N 29°44' W 095°07'0 0.0
2016-May-12 00:33N 29°44' W 095°07'0 0.0
2016-May-11 23:33N 29°44' W 095°07'0 0.0
2016-May-11 22:33N 29°44' W 095°07'0 0.0
2016-May-11 21:34N 29°44' W 095°07'0 0.0
2016-May-11 20:33N 29°44' W 095°07'0 0.0
2016-May-11 19:33N 29°44' W 095°07'0 0.0
2016-May-11 17:33N 29°44' W 095°07'0 0.0
2016-May-11 16:34N 29°44' W 095°07'0 0.0
2016-May-11 15:33N 29°44' W 095°07'0 0.0
2016-May-11 14:34N 29°44' W 095°07'0 0.1
2016-May-11 12:33N 29°44' W 095°07'5 4.9
2016-May-11 11:33N 29°44' W 095°02'8 7.7
2016-May-11 10:33N 29°37' W 094°57'9 8.4
2016-May-11 09:33N 29°30' W 094°52'  

Dump ship's entire track history